Time;durP1;ratioP1;P1;durP2;ratioP2;P2;SDS_P1;SDS_P2;PMS_P1;PMS_P2;Temp;Humidity;BMP_temperature;BMP_pressure;BME280_temperature;BME280_humidity;BME280_pressure;Samples;Min_cycle;Max_cycle;Signal;HPM_P1;HPM_P2
2022/12/24 00:02:06;;;;;;;41.05;5.32;;;;;;;9.58;100.00;100446.03;5042154;28;20021;-75
2022/12/24 00:04:31;;;;;;;37.85;5.75;;;;;;;9.53;100.00;100443.34;5053072;28;20025;-74
2022/12/24 00:06:56;;;;;;;35.85;4.80;;;;;;;9.49;100.00;100445.91;5053439;28;20403;-75
2022/12/24 00:09:22;;;;;;;29.45;4.45;;;;;;;9.53;100.00;100452.97;5047409;28;20551;-73
2022/12/24 00:11:47;;;;;;;37.72;4.88;;;;;;;9.50;100.00;100452.94;5051190;28;20032;-73
2022/12/24 00:14:12;;;;;;;37.78;5.07;;;;;;;9.44;100.00;100462.47;5049611;28;20031;-73
2022/12/24 00:16:38;;;;;;;22.20;4.30;;;;;;;9.44;100.00;100459.84;5047470;28;20027;-74
2022/12/24 00:19:03;;;;;;;31.10;4.97;;;;;;;9.39;100.00;100461.53;5050428;28;20037;-74
2022/12/24 00:21:29;;;;;;;31.38;4.75;;;;;;;9.35;100.00;100459.72;5054495;28;20028;-74
2022/12/24 00:23:54;;;;;;;34.97;4.30;;;;;;;9.35;100.00;100466.72;5049702;28;20031;-73
2022/12/24 00:26:20;;;;;;;39.45;4.93;;;;;;;9.36;100.00;100469.38;5051537;28;20033;-74
2022/12/24 00:28:45;;;;;;;42.70;6.07;;;;;;;9.37;100.00;100463.25;5038563;28;20034;-74
2022/12/24 00:31:14;;;;;;;30.02;4.38;;;;;;;9.34;100.00;100473.69;5048026;28;20104;-75
2022/12/24 00:33:40;;;;;;;30.02;4.55;;;;;;;9.35;100.00;100475.47;5046911;28;20115;-75
2022/12/24 00:36:06;;;;;;;36.00;5.43;;;;;;;9.38;100.00;100475.50;5057308;28;20100;-76
2022/12/24 00:38:32;;;;;;;20.80;3.40;;;;;;;9.36;100.00;100478.97;5049589;28;20028;-74
2022/12/24 00:41:02;;;;;;;41.25;5.20;;;;;;;9.35;100.00;100485.97;5051068;28;20025;-74
2022/12/24 00:43:28;;;;;;;32.55;4.85;;;;;;;9.38;100.00;100482.50;5074022;28;20083;-74
2022/12/24 00:45:53;;;;;;;33.40;4.20;;;;;;;9.34;100.00;100494.69;5038547;28;20033;-73
2022/12/24 00:48:18;;;;;;;33.75;4.40;;;;;;;9.35;100.00;100495.59;5055039;28;20195;-75
2022/12/24 00:50:44;;;;;;;30.77;3.65;;;;;;;9.37;100.00;100505.28;5066939;28;20485;-74
2022/12/24 00:53:10;;;;;;;30.38;3.92;;;;;;;9.35;100.00;100496.47;5055977;28;20032;-74
2022/12/24 00:55:36;;;;;;;40.08;4.60;;;;;;;9.29;100.00;100506.88;5055130;28;20021;-74
2022/12/24 00:58:01;;;;;;;33.75;4.85;;;;;;;9.28;100.00;100516.50;5054321;28;20025;-73
2022/12/24 01:00:26;;;;;;;28.05;5.40;;;;;;;9.27;100.00;100508.59;5050702;28;20048;-74
2022/12/24 01:02:52;;;;;;;34.50;4.90;;;;;;;9.27;100.00;100513.84;5058814;28;20103;-75
2022/12/24 01:05:19;;;;;;;31.52;3.97;;;;;;;9.22;100.00;100520.75;5052083;28;20512;-71
2022/12/24 01:07:46;;;;;;;29.48;4.20;;;;;;;9.19;100.00;100518.09;5070239;28;20025;-74
2022/12/24 01:10:17;;;;;;;38.58;4.72;;;;;;;9.21;100.00;100517.25;5053994;28;20021;-74
2022/12/24 01:12:43;;;;;;;33.20;4.97;;;;;;;9.21;100.00;100525.13;5054152;28;20039;-74
2022/12/24 01:15:10;;;;;;;30.25;3.90;;;;;;;9.21;100.00;100524.22;5057306;28;20025;-74
2022/12/24 01:17:35;;;;;;;32.20;4.32;;;;;;;9.21;100.00;100532.09;5047041;28;20029;-74
2022/12/24 01:20:03;;;;;;;27.67;5.43;;;;;;;9.18;100.00;100534.69;5052659;28;20071;-74
2022/12/24 01:22:29;;;;;;;30.77;3.58;;;;;;;9.15;100.00;100538.16;5054488;28;20092;-75
2022/12/24 01:24:54;;;;;;;31.08;4.47;;;;;;;9.11;100.00;100534.59;5053447;28;20041;-75
2022/12/24 01:27:20;;;;;;;30.30;4.07;;;;;;;9.17;100.00;100538.16;5054522;28;20599;-73
2022/12/24 01:29:45;;;;;;;30.38;4.72;;;;;;;9.09;100.00;100544.19;5051004;28;20053;-73
2022/12/24 01:32:10;;;;;;;29.45;3.92;;;;;;;9.10;100.00;100543.31;5054261;28;20025;-74
2022/12/24 01:34:36;;;;;;;36.97;4.70;;;;;;;9.03;100.00;100551.94;5052400;28;20063;-74
2022/12/24 01:37:01;;;;;;;42.92;4.80;;;;;;;8.99;100.00;100549.22;5051981;28;20029;-73
2022/12/24 01:39:26;;;;;;;26.65;5.43;;;;;;;8.94;100.00;100557.91;5053014;28;20090;-74
2022/12/24 01:44:40;;;;;;;;;;;;;;;8.85;100.00;100564.72;5052234;28;20039;-74
2022/12/24 01:47:12;;;;;;;53.13;5.28;;;;;;;8.81;100.00;100581.25;5049309;28;19916;-75
2022/12/24 01:49:51;;;;;;;37.08;4.35;;;;;;;8.74;100.00;100583.75;5052388;28;20033;-74
2022/12/24 01:52:27;;;;;;;38.25;4.28;;;;;;;8.75;100.00;100579.41;5064661;28;20044;-74
2022/12/24 01:54:58;;;;;;;45.20;4.53;;;;;;;8.76;100.00;100576.81;5039099;28;20064;-74
2022/12/24 01:57:28;;;;;;;21.42;3.78;;;;;;;8.69;100.00;100588.03;5055152;28;20054;-76
2022/12/24 01:59:59;;;;;;;36.72;5.25;;;;;;;8.74;100.00;100577.63;5064472;28;20028;-73
2022/12/24 02:02:26;;;;;;;33.95;4.10;;;;;;;8.74;100.00;100586.38;5052000;28;20047;-75
2022/12/24 02:05:23;;;;;;;37.75;5.00;;;;;;;8.71;100.00;100598.56;5052962;28;20477;-75
2022/12/24 02:07:49;;;;;;;32.72;4.47;;;;;;;8.70;100.00;100599.41;5065120;28;20063;-75
2022/12/24 02:10:14;;;;;;;26.52;3.13;;;;;;;8.65;100.00;100599.31;5040552;28;20053;-75
2022/12/24 02:12:42;;;;;;;34.55;5.57;;;;;;;8.66;100.00;100605.47;5040608;28;20056;-75
2022/12/24 02:15:11;;;;;;;22.67;3.92;;;;;;;8.67;100.00;100610.72;5050390;28;20021;-74
2022/12/24 02:17:58;;;;;;;41.45;4.63;;;;;;;8.73;100.00;100612.59;5049228;28;20461;-75
2022/12/24 02:20:54;;;;;;;31.17;3.67;;;;;;;8.80;100.00;100611.84;5057162;28;20449;-75
2022/12/24 02:23:57;;;;;;;31.75;3.92;;;;;;;8.84;100.00;100612.81;5041256;28;20040;-74
2022/12/24 02:26:28;;;;;;;47.50;5.15;;;;;;;8.84;100.00;100612.81;5064561;28;20403;-73
2022/12/24 02:29:20;;;;;;;26.13;3.78;;;;;;;8.89;100.00;100617.28;5057107;28;20020;-75
2022/12/24 02:31:59;;;;;;;30.17;4.22;;;;;;;8.91;100.00;100614.69;5054451;28;20090;-75
2022/12/24 02:34:57;;;;;;;23.33;3.30;;;;;;;8.95;100.00;100613.88;5044473;28;20072;-74
2022/12/24 02:38:10;;;;;;;25.20;4.15;;;;;;;8.94;100.00;100623.50;5048831;28;20020;-73
2022/12/24 02:40:41;;;;;;;30.10;4.70;;;;;;;8.97;100.00;100625.31;5010466;28;20065;-74
2022/12/24 02:43:14;;;;;;;26.60;3.72;;;;;;;9.04;100.00;100631.56;5009575;28;20821;-74
2022/12/24 02:45:44;;;;;;;34.30;3.63;;;;;;;9.00;100.00;100630.63;5046411;28;20053;-76
2022/12/24 02:48:12;;;;;;;30.13;4.28;;;;;;;8.97;100.00;100630.56;5057913;28;20032;-76
2022/12/24 02:50:37;;;;;;;26.42;3.35;;;;;;;8.97;100.00;100627.94;5053451;28;20622;-75
2022/12/24 02:53:07;;;;;;;32.75;4.53;;;;;;;8.97;100.00;100635.81;5051610;28;20070;-75
2022/12/24 02:56:05;;;;;;;36.15;3.88;;;;;;;9.02;100.00;100636.78;5053877;28;20028;-74
2022/12/24 02:58:43;;;;;;;41.85;4.65;;;;;;;8.99;100.00;100634.09;5036666;28;20036;-73
2022/12/24 03:01:34;;;;;;;31.25;5.97;;;;;;;8.99;100.00;100633.22;5046081;28;20044;-74
2022/12/24 03:04:11;;;;;;;35.25;4.35;;;;;;;8.98;100.00;100648.09;5048016;28;20469;-74
2022/12/24 03:06:51;;;;;;;33.40;4.53;;;;;;;8.90;100.00;100652.31;5051742;28;20029;-75
2022/12/24 03:09:26;;;;;;;32.70;3.90;;;;;;;8.88;100.00;100647.00;5052090;28;20025;-75
2022/12/24 03:12:12;;;;;;;51.55;5.38;;;;;;;8.85;100.00;100652.19;5052778;28;20485;-73
2022/12/24 03:14:40;;;;;;;36.67;5.20;;;;;;;8.81;100.00;100655.59;5051913;28;20079;-73
2022/12/24 03:17:06;;;;;;;51.42;5.07;;;;;;;8.81;100.00;100663.47;5036418;28;20021;-74
2022/12/24 03:19:33;;;;;;;32.00;3.80;;;;;;;8.81;100.00;100657.34;5048993;28;20065;-74
2022/12/24 03:22:02;;;;;;;41.95;4.90;;;;;;;8.80;100.00;100655.56;5049795;28;20091;-74
2022/12/24 03:24:27;;;;;;;38.15;4.60;;;;;;;8.84;100.00;100665.28;5049713;28;20082;-75
2022/12/24 03:26:52;;;;;;;40.40;5.35;;;;;;;8.84;100.00;100660.03;5050873;28;20420;-75
2022/12/24 03:29:18;;;;;;;38.70;4.40;;;;;;;8.84;100.00;100663.53;5062601;28;20059;-75
2022/12/24 03:31:47;;;;;;;43.42;6.47;;;;;;;8.89;100.00;100654.00;5051665;28;20056;-74
2022/12/24 03:34:14;;;;;;;33.25;4.82;;;;;;;8.89;100.00;100663.63;5045469;28;20473;-75
2022/12/24 03:36:39;;;;;;;35.42;4.70;;;;;;;8.93;100.00;100665.47;5051696;28;20552;-75
2022/12/24 03:39:05;;;;;;;37.22;5.20;;;;;;;8.94;100.00;100662.00;5040307;28;20116;-76
2022/12/24 03:41:31;;;;;;;49.75;5.60;;;;;;;8.97;100.00;100667.31;5048156;28;20063;-75
2022/12/24 03:43:56;;;;;;;34.92;4.47;;;;;;;8.97;100.00;100667.31;5042194;28;20053;-74
2022/12/24 03:46:21;;;;;;;36.45;5.28;;;;;;;8.96;100.00;100660.28;5067077;28;20032;-74
2022/12/24 03:48:47;;;;;;;32.65;4.22;;;;;;;8.97;100.00;100672.56;5052511;28;20017;-74
2022/12/24 03:51:18;;;;;;;33.60;3.85;;;;;;;8.99;100.00;100669.94;5051747;28;20111;-74
2022/12/24 03:53:43;;;;;;;42.10;4.90;;;;;;;8.98;100.00;100661.22;5036539;28;20059;-75
2022/12/24 03:56:09;;;;;;;40.00;4.45;;;;;;;9.02;100.00;100677.88;5049766;28;20025;-75
2022/12/24 03:58:34;;;;;;;39.58;4.53;;;;;;;9.01;100.00;100678.75;5035447;28;20033;-75
2022/12/24 04:01:00;;;;;;;31.20;4.78;;;;;;;8.99;100.00;100676.06;5042303;28;20052;-74
2022/12/24 04:03:25;;;;;;;44.15;4.28;;;;;;;9.06;100.00;100666.59;5049890;28;20048;-74
2022/12/24 04:06:06;;;;;;;38.63;4.97;;;;;;;9.07;100.00;100684.13;5052538;28;20048;-75
2022/12/24 04:08:31;;;;;;;29.42;4.53;;;;;;;9.09;100.00;100672.78;5039767;28;20040;-74
2022/12/24 04:10:57;;;;;;;36.70;4.65;;;;;;;9.11;100.00;100673.72;5041179;28;20020;-74
2022/12/24 04:13:22;;;;;;;31.70;4.10;;;;;;;9.14;100.00;100685.13;5050979;28;20366;-74
2022/12/24 04:15:59;;;;;;;36.53;4.85;;;;;;;9.13;100.00;100685.97;5046461;28;20025;-75
2022/12/24 04:18:25;;;;;;;28.00;3.72;;;;;;;9.13;100.00;100688.59;5039657;28;20084;-75
2022/12/24 04:20:50;;;;;;;29.23;3.83;;;;;;;9.16;100.00;100689.56;5048930;28;20024;-76
2022/12/24 04:23:16;;;;;;;47.13;5.07;;;;;;;9.16;100.00;100683.44;5056186;28;20029;-76
2022/12/24 04:25:41;;;;;;;30.00;4.18;;;;;;;9.18;100.00;100692.19;5064142;28;20032;-75
2022/12/24 04:28:06;;;;;;;28.85;4.55;;;;;;;9.18;100.00;100705.31;5051958;28;20021;-75
2022/12/24 04:30:32;;;;;;;31.55;3.83;;;;;;;9.24;100.00;100698.47;5044626;28;20087;-75
2022/12/24 04:32:57;;;;;;;34.83;5.40;;;;;;;9.23;100.00;100690.56;5048526;28;20384;-75
2022/12/24 04:35:22;;;;;;;34.00;4.10;;;;;;;9.26;100.00;100702.03;5055644;28;20025;-74
2022/12/24 04:37:48;;;;;;;35.50;4.22;;;;;;;9.25;100.00;100697.63;5058468;28;20029;-74
2022/12/24 04:40:13;;;;;;;40.60;5.15;;;;;;;9.27;100.00;100693.25;5054533;28;20028;-74
2022/12/24 04:42:38;;;;;;;33.22;4.35;;;;;;;9.27;100.00;100708.16;5037489;28;20076;-74
2022/12/24 04:45:04;;;;;;;41.92;6.50;;;;;;;9.31;100.00;100703.84;5047443;28;20028;-73
2022/12/24 04:47:30;;;;;;;29.98;3.95;;;;;;;9.31;100.00;100712.59;5044434;28;20504;-75
2022/12/24 04:49:55;;;;;;;27.65;3.83;;;;;;;9.32;100.00;100716.09;5034058;28;20108;-74
2022/12/24 04:52:20;;;;;;;27.58;4.70;;;;;;;9.30;100.00;100715.19;5032186;28;20029;-75
2022/12/24 04:54:46;;;;;;;40.30;5.35;;;;;;;9.33;100.00;100710.00;5047618;28;20032;-74
2022/12/24 04:57:11;;;;;;;42.90;5.85;;;;;;;9.34;100.00;100707.41;5047070;28;20037;-75
2022/12/24 04:59:36;;;;;;;41.08;4.28;;;;;;;9.34;100.00;100710.03;5050845;28;20025;-74
2022/12/24 05:02:02;;;;;;;40.85;5.30;;;;;;;9.32;100.00;100716.09;5052231;28;20103;-74
2022/12/24 05:04:28;;;;;;;30.88;3.85;;;;;;;9.32;100.00;100711.75;5039493;28;20397;-75
2022/12/24 05:06:53;;;;;;;33.08;5.57;;;;;;;9.28;100.00;100723.03;5056986;28;20029;-75
2022/12/24 05:09:18;;;;;;;32.80;4.60;;;;;;;9.25;100.00;100720.34;5042361;28;20469;-75
2022/12/24 05:11:44;;;;;;;33.65;4.55;;;;;;;9.24;100.00;100724.72;5050345;28;20029;-74
2022/12/24 05:14:09;;;;;;;43.28;4.65;;;;;;;9.24;100.00;100726.47;5050708;28;20025;-73
2022/12/24 05:16:34;;;;;;;41.35;4.50;;;;;;;9.25;100.00;100730.84;5033575;28;20480;-74
2022/12/24 05:19:00;;;;;;;35.25;4.63;;;;;;;9.28;100.00;100741.44;5047828;28;20040;-75
2022/12/24 05:21:25;;;;;;;34.83;4.88;;;;;;;9.25;100.00;100738.72;5050843;28;20029;-75
2022/12/24 05:27:05;;;;;;;33.50;4.03;;;;;;;9.32;100.00;100730.13;5050274;28;20043;-74
2022/12/24 05:29:30;;;;;;;28.42;5.00;;;;;;;9.31;100.00;100722.22;5030686;28;20111;-74
2022/12/24 05:31:55;;;;;;;38.78;5.53;;;;;;;9.32;100.00;100724.88;5049540;28;20151;-74
2022/12/24 05:34:20;;;;;;;30.50;3.97;;;;;;;9.31;100.00;100724.84;5039473;28;20385;-74
2022/12/24 05:36:46;;;;;;;26.70;4.75;;;;;;;9.30;100.00;100721.31;5050189;28;20025;-74
2022/12/24 05:39:15;;;;;;;39.42;5.63;;;;;;;9.34;100.00;100717.03;5050735;28;20029;-73
2022/12/24 05:41:40;;;;;;;47.20;4.50;;;;;;;9.27;100.00;100723.91;5053602;28;20101;-74
2022/12/24 05:44:05;;;;;;;40.25;5.63;;;;;;;9.24;100.00;100718.59;5055962;28;20068;-74
2022/12/24 05:46:31;;;;;;;46.58;5.63;;;;;;;9.21;100.00;100729.00;5068890;28;20208;-74
2022/12/24 05:48:56;;;;;;;41.88;5.35;;;;;;;9.24;100.00;100736.97;5069232;28;20044;-74
2022/12/24 05:51:22;;;;;;;49.33;5.55;;;;;;;9.18;100.00;100732.44;5064813;28;20467;-73
2022/12/24 05:53:49;;;;;;;35.15;5.28;;;;;;;9.15;100.00;100737.66;5051494;28;20029;-73
2022/12/24 05:56:20;;;;;;;40.53;4.97;;;;;;;9.11;100.00;100744.59;5052494;28;20510;-74
2022/12/24 05:58:45;;;;;;;39.30;5.15;;;;;;;9.07;100.00;100742.72;5050951;28;20033;-73
2022/12/24 06:01:12;;;;;;;42.85;5.32;;;;;;;9.05;100.00;100748.84;5051714;28;20045;-73
2022/12/24 06:03:38;;;;;;;41.70;5.18;;;;;;;9.03;100.00;100754.03;5053100;28;20032;-74
2022/12/24 06:06:10;;;;;;;38.47;5.22;;;;;;;9.01;100.00;100758.38;5057269;28;20027;-74
2022/12/24 06:08:37;;;;;;;41.20;5.85;;;;;;;9.07;100.00;100765.47;5054038;28;20128;-73
2022/12/24 06:11:04;;;;;;;30.75;5.50;;;;;;;9.02;100.00;100765.41;5064089;28;20035;-74
2022/12/24 06:13:30;;;;;;;41.95;5.00;;;;;;;9.02;100.00;100767.13;5055847;28;20032;-74
2022/12/24 06:15:57;;;;;;;32.20;3.85;;;;;;;8.98;100.00;100778.41;5054616;28;20029;-74
2022/12/24 06:18:23;;;;;;;32.17;5.93;;;;;;;8.95;100.00;100779.22;5047949;28;20036;-72
2022/12/24 06:20:54;;;;;;;37.05;4.88;;;;;;;8.94;100.00;100798.47;5058368;28;20415;-73
2022/12/24 06:23:20;;;;;;;28.00;5.68;;;;;;;8.90;100.00;100796.63;5053126;28;20412;-74
2022/12/24 06:25:46;;;;;;;38.88;4.35;;;;;;;8.91;100.00;100793.13;5051228;28;20032;-74
2022/12/24 06:28:11;;;;;;;36.88;5.78;;;;;;;8.89;100.00;100800.09;5043325;28;20036;-74
2022/12/24 06:30:36;;;;;;;46.17;4.47;;;;;;;8.88;100.00;100798.31;5043247;28;20036;-74
2022/12/24 06:33:02;;;;;;;39.65;4.90;;;;;;;8.92;100.00;100784.41;5037638;28;20380;-74
2022/12/24 06:35:27;;;;;;;44.92;5.50;;;;;;;8.90;100.00;100788.75;5047612;28;20029;-74
2022/12/24 06:37:52;;;;;;;38.15;4.78;;;;;;;8.91;100.00;100793.13;5038127;28;20040;-74
2022/12/24 06:40:18;;;;;;;48.90;5.97;;;;;;;8.86;100.00;100790.41;5069255;28;20028;-72
2022/12/24 06:42:43;;;;;;;54.20;6.88;;;;;;;8.86;100.00;100794.78;5067834;28;20036;-73
2022/12/24 06:45:09;;;;;;;40.80;5.78;;;;;;;8.82;100.00;100782.41;5046462;28;20040;-74
2022/12/24 06:47:34;;;;;;;36.28;4.75;;;;;;;8.71;100.00;100788.31;5036766;28;20025;-74
2022/12/24 06:50:00;;;;;;;48.67;8.32;;;;;;;8.70;100.00;100791.78;5054068;28;20124;-74
2022/12/24 06:52:25;;;;;;;50.42;5.78;;;;;;;8.63;100.00;100787.25;5046868;28;20488;-74
2022/12/24 06:54:50;;;;;;;41.97;5.47;;;;;;;8.64;100.00;100789.03;5052157;28;20631;-74
2022/12/24 06:57:16;;;;;;;52.00;6.43;;;;;;;8.52;100.00;100799.22;5052689;28;20064;-72
2022/12/24 06:59:41;;;;;;;46.53;5.65;;;;;;;8.46;100.00;100794.72;5056432;28;20048;-73
2022/12/24 07:02:08;;;;;;;41.35;6.07;;;;;;;8.38;100.00;100797.13;5051065;28;20107;-73
2022/12/24 07:04:33;;;;;;;45.45;6.20;;;;;;;8.31;100.00;100807.41;5052394;28;20033;-74
2022/12/24 07:06:59;;;;;;;56.92;5.90;;;;;;;8.26;100.00;100812.53;5064178;28;20085;-73
2022/12/24 07:09:24;;;;;;;48.58;6.18;;;;;;;8.19;100.00;100821.09;5061669;28;20029;-74
2022/12/24 07:11:49;;;;;;;54.35;6.65;;;;;;;8.20;100.00;100817.63;5073329;28;20032;-73
2022/12/24 07:14:15;;;;;;;63.55;6.22;;;;;;;8.12;100.00;100819.16;5058999;28;20035;-74
2022/12/24 07:16:40;;;;;;;45.15;5.70;;;;;;;8.06;100.00;100815.53;5053341;28;20381;-74
2022/12/24 07:19:05;;;;;;;63.53;6.40;;;;;;;8.09;100.00;100818.22;5063093;28;20029;-74
2022/12/24 07:21:31;;;;;;;50.85;5.80;;;;;;;8.03;100.00;100823.31;5058417;28;20032;-73
2022/12/24 07:23:56;;;;;;;57.00;6.70;;;;;;;7.97;100.00;100833.63;5054748;28;20104;-73
2022/12/24 07:26:22;;;;;;;42.75;5.50;;;;;;;7.92;100.00;100832.59;5059575;28;20033;-74
2022/12/24 07:28:47;;;;;;;62.78;7.05;;;;;;;7.92;100.00;100843.09;5046174;28;20472;-73
2022/12/24 07:31:12;;;;;;;54.60;6.50;;;;;;;7.97;100.00;100844.09;5050908;28;20052;-74
2022/12/24 07:33:38;;;;;;;57.45;6.10;;;;;;;7.97;100.00;100849.34;5054201;28;20032;-74
2022/12/24 07:36:06;;;;;;;59.20;6.78;;;;;;;7.96;100.00;100839.69;5052676;28;20040;-74
2022/12/24 07:38:32;;;;;;;56.15;7.03;;;;;;;7.94;100.00;100849.28;5045532;28;20056;-73
2022/12/24 07:40:58;;;;;;;63.15;6.97;;;;;;;7.97;100.00;100857.22;5048765;28;20480;-74
2022/12/24 07:43:24;;;;;;;53.70;6.18;;;;;;;8.00;100.00;100866.88;5049106;28;20037;-70
2022/12/24 07:45:50;;;;;;;64.18;7.45;;;;;;;8.01;100.00;100869.53;5046888;28;20104;-74
2022/12/24 07:48:15;;;;;;;48.13;5.90;;;;;;;8.02;100.00;100879.19;5048231;28;20108;-73
2022/12/24 07:50:41;;;;;;;44.42;5.93;;;;;;;8.01;100.00;100880.03;5046700;28;20025;-74
2022/12/24 07:53:07;;;;;;;58.92;7.45;;;;;;;8.03;100.00;100887.94;5040335;28;20521;-74
2022/12/24 07:55:32;;;;;;;47.72;5.20;;;;;;;7.99;100.00;100894.84;5038693;28;20104;-75
2022/12/24 07:57:57;;;;;;;50.35;6.07;;;;;;;8.01;100.00;100898.38;5050623;28;20052;-73
2022/12/24 08:00:23;;;;;;;49.75;5.50;;;;;;;8.01;100.00;100897.50;5047593;28;20415;-74
2022/12/24 08:02:48;;;;;;;56.15;5.28;;;;;;;7.97;100.00;100904.38;5044577;28;20610;-74
2022/12/24 08:05:13;;;;;;;48.80;5.95;;;;;;;7.99;100.00;100913.19;5049200;28;22006;-74
2022/12/24 08:07:39;;;;;;;43.95;6.25;;;;;;;8.01;100.00;100916.72;5053840;28;20025;-74
2022/12/24 08:10:04;;;;;;;35.42;5.03;;;;;;;8.03;100.00;100908.88;5047910;28;20487;-73
2022/12/24 08:12:30;;;;;;;31.73;5.18;;;;;;;8.07;100.00;100916.00;5051410;28;20109;-74
2022/12/24 08:14:55;;;;;;;50.50;6.57;;;;;;;8.05;100.00;100904.59;5047503;28;20037;-72
2022/12/24 08:17:20;;;;;;;50.97;5.88;;;;;;;8.01;100.00;100906.22;5045627;28;20067;-73
2022/12/24 08:19:46;;;;;;;38.20;5.85;;;;;;;8.04;100.00;100921.16;5047419;28;20024;-73
2022/12/24 08:22:11;;;;;;;36.95;5.88;;;;;;;8.03;100.00;100920.28;5047171;28;20033;-74
2022/12/24 08:24:36;;;;;;;54.00;6.72;;;;;;;8.05;100.00;100923.81;5049621;28;20527;-73
2022/12/24 08:27:02;;;;;;;44.97;6.95;;;;;;;8.06;100.00;100932.59;5051512;28;20043;-74
2022/12/24 08:29:27;;;;;;;43.63;6.82;;;;;;;8.08;100.00;100937.03;5047628;28;20021;-74
2022/12/24 08:31:53;;;;;;;50.15;5.63;;;;;;;8.08;100.00;100939.66;5049238;28;20482;-75
2022/12/24 08:34:18;;;;;;;67.85;8.05;;;;;;;8.09;100.00;100949.25;5050826;28;20082;-74
2022/12/24 08:36:43;;;;;;;60.10;7.65;;;;;;;8.14;100.00;100953.75;5050029;28;20036;-74
2022/12/24 08:39:09;;;;;;;55.35;5.95;;;;;;;8.17;100.00;100954.72;5049597;28;20445;-72
2022/12/24 08:41:35;;;;;;;43.85;5.85;;;;;;;8.18;100.00;100963.47;5051945;28;20033;-74
2022/12/24 08:44:00;;;;;;;41.90;5.07;;;;;;;8.25;100.00;100962.81;5049698;28;20461;-73
2022/12/24 08:46:26;;;;;;;35.80;6.30;;;;;;;8.26;100.00;100964.56;5033285;28;20026;-73
2022/12/24 08:48:51;;;;;;;67.72;7.20;;;;;;;8.35;100.00;100975.31;5036778;28;20033;-75
2022/12/24 08:51:18;;;;;;;68.45;7.70;;;;;;;8.40;100.00;100973.72;5046259;28;20070;-75
2022/12/24 08:53:44;;;;;;;55.30;5.82;;;;;;;8.44;100.00;100983.44;5044428;28;20028;-75
2022/12/24 08:56:10;;;;;;;50.00;7.22;;;;;;;8.51;100.00;100981.03;5051272;28;20040;-74
2022/12/24 08:58:37;;;;;;;44.67;5.75;;;;;;;8.60;100.00;100982.16;5046152;28;20026;-74
2022/12/24 09:01:10;;;;;;;58.53;8.40;;;;;;;8.67;100.00;100993.72;5045890;28;20412;-74
2022/12/24 09:03:36;;;;;;;52.97;7.03;;;;;;;8.70;100.00;100991.16;5037485;28;20030;-74
2022/12/24 09:06:05;;;;;;;47.70;7.47;;;;;;;8.73;100.00;100993.84;5045664;28;20029;-74
2022/12/24 09:08:31;;;;;;;51.08;5.93;;;;;;;8.82;100.00;101005.44;5050531;28;20124;-75
2022/12/24 09:11:09;;;;;;;47.88;6.60;;;;;;;8.86;100.00;100997.72;5049133;28;20033;-74
2022/12/24 09:13:35;;;;;;;57.38;5.18;;;;;;;8.90;100.00;101003.94;5050142;28;20393;-74
2022/12/24 09:16:01;;;;;;;46.67;5.65;;;;;;;8.96;100.00;101005.81;5053852;28;20064;-75
2022/12/24 09:18:27;;;;;;;35.38;5.07;;;;;;;9.01;100.00;101005.09;5052676;28;20071;-75
2022/12/24 09:20:59;;;;;;;34.45;4.82;;;;;;;9.05;100.00;101012.19;5041076;28;20037;-73
2022/12/24 09:23:25;;;;;;;43.75;6.03;;;;;;;9.13;100.00;101030.78;5051335;28;20029;-74
2022/12/24 09:25:50;;;;;;;44.15;5.28;;;;;;;9.09;100.00;101032.41;5039458;28;20408;-75
2022/12/24 09:28:15;;;;;;;39.55;4.75;;;;;;;9.09;100.00;101032.41;5053084;28;20025;-74
2022/12/24 09:30:41;;;;;;;35.70;4.97;;;;;;;9.16;100.00;101040.47;5046587;28;20039;-74
2022/12/24 09:33:06;;;;;;;47.60;5.75;;;;;;;9.16;100.00;101033.47;5053374;28;20021;-75
2022/12/24 09:35:31;;;;;;;39.60;6.05;;;;;;;9.18;100.00;101041.38;5053173;28;20435;-73
2022/12/24 09:38:02;;;;;;;34.55;5.15;;;;;;;9.20;100.00;101040.56;5061675;28;20427;-71
2022/12/24 09:40:36;;;;;;;49.35;7.28;;;;;;;9.22;100.00;101035.34;5057386;28;20444;-71
2022/12/24 09:43:04;;;;;;;;;;;;;;;9.20;100.00;101029.19;5055508;28;20021;-72
2022/12/24 09:45:37;;;;;;;33.25;5.43;;;;;;;9.21;100.00;101041.44;5054766;28;19965;-72
2022/12/24 09:48:09;;;;;;;40.53;5.05;;;;;;;9.20;100.00;101045.81;5060627;28;20032;-71
2022/12/24 09:50:57;;;;;;;36.05;5.50;;;;;;;9.26;100.00;101058.22;5056607;28;20389;-72
2022/12/24 09:53:44;;;;;;;27.52;4.25;;;;;;;9.29;100.00;101047.78;5065369;28;20059;-71
2022/12/24 09:56:14;;;;;;;36.92;5.22;;;;;;;9.33;100.00;101041.75;5044239;28;20032;-72
2022/12/24 09:58:44;;;;;;;37.20;5.15;;;;;;;9.36;100.00;101060.22;5052965;28;20384;-71
2022/12/24 10:01:12;;;;;;;42.60;5.68;;;;;;;9.35;100.00;101055.81;5057688;28;20497;-72
2022/12/24 10:03:38;;;;;;;34.00;5.45;;;;;;;9.41;100.00;101049.81;5045723;28;20041;-71
2022/12/24 10:06:20;;;;;;;44.47;4.90;;;;;;;9.44;100.00;101057.78;5056433;28;20082;-72
2022/12/24 10:09:07;;;;;;;32.25;4.85;;;;;;;9.54;100.00;101059.78;5047724;28;20020;-71
2022/12/24 10:11:49;;;;;;;29.55;3.80;;;;;;;9.59;100.00;101060.78;5046586;28;20025;-72
2022/12/24 10:14:53;;;;;;;38.60;4.97;;;;;;;9.74;100.00;101062.91;5052654;28;20087;-72
2022/12/24 10:17:37;;;;;;;33.13;4.85;;;;;;;9.87;100.00;101060.53;5047495;28;20045;-71
2022/12/24 10:20:21;;;;;;;;;;;;;;;10.13;100.00;101056.75;5050580;28;20055;-72
2022/12/24 10:23:10;;;;;;;20.47;3.07;;;;;;;10.25;100.00;101060.50;5041967;28;19921;-72
2022/12/24 10:26:16;;;;;;;32.03;5.32;;;;;;;10.30;100.00;101062.38;5059470;28;20287;-72
2022/12/24 10:28:57;;;;;;;22.55;3.40;;;;;;;10.66;100.00;101078.03;5047305;28;20037;-71
2022/12/24 10:31:26;;;;;;;37.35;4.03;;;;;;;11.01;100.00;101075.19;5063544;28;20032;-71
2022/12/24 10:34:00;;;;;;;36.75;4.65;;;;;;;11.19;100.00;101082.53;5053450;28;20052;-72
2022/12/24 10:36:28;;;;;;;22.90;5.63;;;;;;;11.24;100.00;101072.97;5060027;28;20086;-70
2022/12/24 10:38:54;;;;;;;23.35;3.85;;;;;;;11.22;100.00;101074.72;5048951;28;20495;-72
2022/12/24 10:41:19;;;;;;;28.55;3.53;;;;;;;10.87;100.00;101078.47;5054811;28;20029;-72
2022/12/24 10:43:46;;;;;;;32.83;4.57;;;;;;;10.84;100.00;101088.03;5048056;28;20032;-72
2022/12/24 10:46:36;;;;;;;46.42;6.97;;;;;;;10.59;100.00;101090.19;5053018;28;20067;-71
2022/12/24 10:49:12;;;;;;;37.03;5.78;;;;;;;10.52;100.00;101099.69;5062317;28;20067;-72
2022/12/24 10:51:57;;;;;;;38.65;4.75;;;;;;;10.42;100.00;101095.97;5059361;28;20476;-72
2022/12/24 10:54:25;;;;;;;32.40;6.38;;;;;;;10.32;100.00;101095.72;5050966;28;20161;-72
2022/12/24 10:56:55;;;;;;;25.52;3.90;;;;;;;10.20;100.00;101109.47;5053924;28;20024;-72
2022/12/24 10:59:38;;;;;;;36.92;4.55;;;;;;;10.16;100.00;101099.75;5070331;28;20064;-72
2022/12/24 11:02:31;;;;;;;41.88;5.70;;;;;;;10.23;100.00;101099.06;5040860;28;20409;-72
2022/12/24 11:05:00;;;;;;;28.40;4.30;;;;;;;10.23;100.00;101107.81;5044203;28;20040;-71
2022/12/24 11:07:28;;;;;;;35.17;5.18;;;;;;;10.19;100.00;101112.97;5042652;28;20060;-72
2022/12/24 11:10:03;;;;;;;30.80;4.07;;;;;;;10.30;100.00;101098.31;5052266;28;20051;-73
2022/12/24 11:12:31;;;;;;;33.53;4.00;;;;;;;10.28;100.00;101094.75;5045125;28;20116;-72
2022/12/24 11:15:04;;;;;;;42.90;6.40;;;;;;;10.16;100.00;101092.75;5057004;28;20040;-72
2022/12/24 11:17:30;;;;;;;32.20;4.25;;;;;;;10.11;100.00;101095.28;5044425;28;20063;-72
2022/12/24 11:19:56;;;;;;;27.48;4.28;;;;;;;10.10;100.00;101103.13;5047988;28;20081;-73
2022/12/24 11:22:30;;;;;;;26.63;4.03;;;;;;;9.96;100.00;101100.19;5053259;28;20024;-72
2022/12/24 11:25:27;;;;;;;;;;;;;;;9.99;100.00;101095.00;5053678;28;20396;-73
2022/12/24 11:27:54;;;;;;;33.33;4.95;;;;;;;10.07;100.00;101097.81;5042562;28;19909;-71
2022/12/24 11:30:28;;;;;;;25.90;3.78;;;;;;;10.11;100.00;101105.78;5054158;28;20810;-73
2022/12/24 11:33:00;;;;;;;29.45;4.57;;;;;;;10.10;100.00;101113.66;5049853;28;20089;-71